sensor_id;sensor_type;location;lat;lon;timestamp;pressure;altitude;pressure_sealevel;temperature;humidity
5455;BME280;2750;49.050;9.250;2022-09-16T00:03:30;98225.47;;;17.63;93.51
5455;BME280;2750;49.050;9.250;2022-09-16T00:08:35;98231.44;;;17.65;93.67
5455;BME280;2750;49.050;9.250;2022-09-16T00:13:39;98227.28;;;17.63;93.88
5455;BME280;2750;49.050;9.250;2022-09-16T00:18:41;98220.34;;;17.83;92.77
5455;BME280;2750;49.050;9.250;2022-09-16T00:23:43;98226.50;;;17.31;94.72
5455;BME280;2750;49.050;9.250;2022-09-16T00:28:47;98224.41;;;17.66;93.08
5455;BME280;2750;49.050;9.250;2022-09-16T00:33:48;98222.28;;;17.81;92.17
5455;BME280;2750;49.050;9.250;2022-09-16T00:38:52;98217.72;;;17.83;91.72
5455;BME280;2750;49.050;9.250;2022-09-16T00:43:55;98219.91;;;17.57;92.43
5455;BME280;2750;49.050;9.250;2022-09-16T00:49:01;98224.25;;;17.26;93.34
5455;BME280;2750;49.050;9.250;2022-09-16T00:54:06;98213.50;;;17.50;92.75
5455;BME280;2750;49.050;9.250;2022-09-16T00:59:13;98226.50;;;17.51;92.76
5455;BME280;2750;49.050;9.250;2022-09-16T01:04:18;98233.78;;;17.27;92.74
5455;BME280;2750;49.050;9.250;2022-09-16T01:09:22;98233.25;;;17.33;92.52
5455;BME280;2750;49.050;9.250;2022-09-16T01:14:25;98222.19;;;17.09;93.44
5455;BME280;2750;49.050;9.250;2022-09-16T01:20:02;98236.25;;;17.08;94.26
5455;BME280;2750;49.050;9.250;2022-09-16T01:25:19;98232.19;;;17.77;90.89
5455;BME280;2750;49.050;9.250;2022-09-16T01:30:45;98229.50;;;17.88;89.39
5455;BME280;2750;49.050;9.250;2022-09-16T01:36:14;98222.81;;;17.22;92.26
5455;BME280;2750;49.050;9.250;2022-09-16T01:41:24;98229.88;;;17.42;91.68
5455;BME280;2750;49.050;9.250;2022-09-16T01:46:36;98231.47;;;17.13;92.55
5455;BME280;2750;49.050;9.250;2022-09-16T01:51:47;98225.75;;;17.08;93.13
5455;BME280;2750;49.050;9.250;2022-09-16T01:56:53;98238.53;;;16.69;94.52
5455;BME280;2750;49.050;9.250;2022-09-16T02:02:03;98226.13;;;17.35;91.32
5455;BME280;2750;49.050;9.250;2022-09-16T02:07:09;98217.38;;;16.93;93.19
5455;BME280;2750;49.050;9.250;2022-09-16T02:12:17;98230.84;;;17.20;91.73
5455;BME280;2750;49.050;9.250;2022-09-16T02:17:25;98229.78;;;17.12;92.23
5455;BME280;2750;49.050;9.250;2022-09-16T02:22:31;98216.69;;;17.12;91.95
5455;BME280;2750;49.050;9.250;2022-09-16T02:27:35;98204.78;;;17.29;90.35
5455;BME280;2750;49.050;9.250;2022-09-16T02:32:42;98195.13;;;17.29;90.85
5455;BME280;2750;49.050;9.250;2022-09-16T02:37:49;98196.47;;;17.44;90.31
5455;BME280;2750;49.050;9.250;2022-09-16T02:42:51;98201.66;;;17.14;92.07
5455;BME280;2750;49.050;9.250;2022-09-16T02:48:00;98206.66;;;17.17;92.16
5455;BME280;2750;49.050;9.250;2022-09-16T02:53:07;98196.41;;;17.14;91.38
5455;BME280;2750;49.050;9.250;2022-09-16T02:58:13;98204.53;;;17.11;90.32
5455;BME280;2750;49.050;9.250;2022-09-16T03:03:16;98200.84;;;17.34;89.69
5455;BME280;2750;49.050;9.250;2022-09-16T03:08:17;98207.97;;;17.11;89.91
5455;BME280;2750;49.050;9.250;2022-09-16T03:13:21;98216.97;;;16.55;91.52
5455;BME280;2750;49.050;9.250;2022-09-16T03:18:41;98214.31;;;16.77;92.05
5455;BME280;2750;49.050;9.250;2022-09-16T03:23:55;98205.03;;;16.73;92.02
5455;BME280;2750;49.050;9.250;2022-09-16T03:29:06;98202.28;;;17.06;91.21
5455;BME280;2750;49.050;9.250;2022-09-16T03:34:16;98202.69;;;16.91;90.96
5455;BME280;2750;49.050;9.250;2022-09-16T03:39:21;98204.28;;;17.35;87.62
5455;BME280;2750;49.050;9.250;2022-09-16T03:44:30;98198.00;;;17.26;88.59
5455;BME280;2750;49.050;9.250;2022-09-16T03:49:33;98216.00;;;17.51;87.25
5455;BME280;2750;49.050;9.250;2022-09-16T03:54:36;98209.13;;;16.98;89.57
5455;BME280;2750;49.050;9.250;2022-09-16T03:59:37;98203.78;;;17.20;88.39
5455;BME280;2750;49.050;9.250;2022-09-16T04:04:41;98195.00;;;17.10;89.12
5455;BME280;2750;49.050;9.250;2022-09-16T04:09:43;98193.56;;;17.06;89.28
5455;BME280;2750;49.050;9.250;2022-09-16T04:14:44;98195.97;;;17.09;88.66
5455;BME280;2750;49.050;9.250;2022-09-16T04:19:47;98191.94;;;17.05;88.95
5455;BME280;2750;49.050;9.250;2022-09-16T04:24:49;98194.63;;;17.14;88.51
5455;BME280;2750;49.050;9.250;2022-09-16T04:29:50;98199.88;;;16.83;90.30
5455;BME280;2750;49.050;9.250;2022-09-16T04:34:53;98195.00;;;17.10;89.91
5455;BME280;2750;49.050;9.250;2022-09-16T04:39:55;98184.06;;;17.05;88.59
5455;BME280;2750;49.050;9.250;2022-09-16T04:44:57;98188.66;;;17.33;86.70
5455;BME280;2750;49.050;9.250;2022-09-16T04:50:01;98188.94;;;17.30;87.08
5455;BME280;2750;49.050;9.250;2022-09-16T04:55:02;98196.47;;;17.44;86.53
5455;BME280;2750;49.050;9.250;2022-09-16T05:00:05;98201.84;;;17.01;86.88
5455;BME280;2750;49.050;9.250;2022-09-16T05:05:08;98199.22;;;17.22;86.78
5455;BME280;2750;49.050;9.250;2022-09-16T05:10:10;98206.47;;;17.09;86.27
5455;BME280;2750;49.050;9.250;2022-09-16T05:15:11;98203.25;;;17.05;87.04
5455;BME280;2750;49.050;9.250;2022-09-16T05:20:14;98200.16;;;16.68;88.57
5455;BME280;2750;49.050;9.250;2022-09-16T05:25:16;98201.84;;;17.01;89.18
5455;BME280;2750;49.050;9.250;2022-09-16T05:30:18;98199.16;;;17.12;88.56
5455;BME280;2750;49.050;9.250;2022-09-16T05:35:21;98195.13;;;17.29;88.47
5455;BME280;2750;49.050;9.250;2022-09-16T05:40:22;98203.22;;;16.85;86.92
5455;BME280;2750;49.050;9.250;2022-09-16T05:45:26;98195.13;;;16.77;88.06
5455;BME280;2750;49.050;9.250;2022-09-16T05:50:29;98199.25;;;16.58;87.48
5455;BME280;2750;49.050;9.250;2022-09-16T05:55:30;98195.53;;;16.50;88.56
5455;BME280;2750;49.050;9.250;2022-09-16T06:00:32;98205.44;;;16.46;89.27
5455;BME280;2750;49.050;9.250;2022-09-16T06:05:35;98205.31;;;16.91;87.06
5455;BME280;2750;49.050;9.250;2022-09-16T06:10:37;98216.34;;;16.73;87.00
5455;BME280;2750;49.050;9.250;2022-09-16T06:15:38;98226.63;;;16.43;88.25
5455;BME280;2750;49.050;9.250;2022-09-16T06:20:41;98223.78;;;16.46;88.33
5455;BME280;2750;49.050;9.250;2022-09-16T06:25:43;98218.31;;;16.38;88.75
5455;BME280;2750;49.050;9.250;2022-09-16T06:30:45;98225.69;;;16.33;87.84
5455;BME280;2750;49.050;9.250;2022-09-16T06:35:48;98227.22;;;16.47;88.31
5455;BME280;2750;49.050;9.250;2022-09-16T06:40:50;98220.91;;;16.49;89.43
5455;BME280;2750;49.050;9.250;2022-09-16T06:45:56;98223.66;;;16.48;92.01
5455;BME280;2750;49.050;9.250;2022-09-16T06:50:59;98234.16;;;16.14;95.54
5455;BME280;2750;49.050;9.250;2022-09-16T06:56:03;98216.88;;;16.56;95.59
5455;BME280;2750;49.050;9.250;2022-09-16T07:01:07;98220.97;;;17.34;92.79
5455;BME280;2750;49.050;9.250;2022-09-16T07:06:10;98214.78;;;17.55;91.59
5455;BME280;2750;49.050;9.250;2022-09-16T07:11:14;98211.81;;;17.90;91.07
5455;BME280;2750;49.050;9.250;2022-09-16T07:16:17;98209.75;;;17.94;89.84
5455;BME280;2750;49.050;9.250;2022-09-16T07:21:23;98227.41;;;17.61;90.39
5455;BME280;2750;49.050;9.250;2022-09-16T07:26:31;98216.19;;;17.80;90.11
5455;BME280;2750;49.050;9.250;2022-09-16T07:31:35;98220.53;;;17.49;90.64
5455;BME280;2750;49.050;9.250;2022-09-16T07:36:39;98214.69;;;17.87;90.23
5455;BME280;2750;49.050;9.250;2022-09-16T07:41:43;98213.91;;;18.36;88.76
5455;BME280;2750;49.050;9.250;2022-09-16T07:46:44;98229.88;;;17.84;89.72
5455;BME280;2750;49.050;9.250;2022-09-16T07:51:48;98229.88;;;17.84;90.56
5455;BME280;2750;49.050;9.250;2022-09-16T07:56:50;98238.59;;;18.14;89.33
5455;BME280;2750;49.050;9.250;2022-09-16T08:01:51;98246.50;;;17.94;89.97
5455;BME280;2750;49.050;9.250;2022-09-16T08:06:54;98236.72;;;17.54;92.27
5455;BME280;2750;49.050;9.250;2022-09-16T08:11:56;98241.00;;;17.97;92.33
5455;BME280;2750;49.050;9.250;2022-09-16T08:16:57;98236.63;;;18.47;90.09
5455;BME280;2750;49.050;9.250;2022-09-16T08:22:01;98252.13;;;18.50;89.52
5455;BME280;2750;49.050;9.250;2022-09-16T08:27:03;98260.06;;;17.99;90.63
5455;BME280;2750;49.050;9.250;2022-09-16T08:32:04;98252.81;;;17.29;92.81
5455;BME280;2750;49.050;9.250;2022-09-16T08:37:07;98252.91;;;17.71;90.26
5455;BME280;2750;49.050;9.250;2022-09-16T08:42:30;98264.88;;;17.94;87.79
5455;BME280;2750;49.050;9.250;2022-09-16T08:47:45;98265.97;;;18.12;87.30
5455;BME280;2750;49.050;9.250;2022-09-16T08:52:52;98258.91;;;18.43;88.59
5455;BME280;2750;49.050;9.250;2022-09-16T08:57:59;98242.72;;;19.06;86.80
5455;BME280;2750;49.050;9.250;2022-09-16T09:03:11;98259.47;;;18.96;85.49
5455;BME280;2750;49.050;9.250;2022-09-16T09:08:27;98258.91;;;19.40;86.72
5455;BME280;2750;49.050;9.250;2022-09-16T09:13:41;98262.28;;;20.08;83.72
5455;BME280;2750;49.050;9.250;2022-09-16T09:18:52;98256.38;;;20.24;82.12
5455;BME280;2750;49.050;9.250;2022-09-16T09:24:17;98252.94;;;20.23;81.34
5455;BME280;2750;49.050;9.250;2022-09-16T09:29:33;98255.03;;;19.64;84.63
5455;BME280;2750;49.050;9.250;2022-09-16T09:34:49;98248.22;;;19.71;84.10
5455;BME280;2750;49.050;9.250;2022-09-16T09:40:01;98253.06;;;19.85;83.70
5455;BME280;2750;49.050;9.250;2022-09-16T09:45:16;98248.59;;;19.95;81.17
5455;BME280;2750;49.050;9.250;2022-09-16T09:50:22;98244.91;;;20.15;80.77
5455;BME280;2750;49.050;9.250;2022-09-16T09:55:31;98241.44;;;20.15;80.51
5455;BME280;2750;49.050;9.250;2022-09-16T10:00:32;98250.13;;;20.34;79.22
5455;BME280;2750;49.050;9.250;2022-09-16T10:05:34;98247.56;;;20.15;82.21
5455;BME280;2750;49.050;9.250;2022-09-16T10:10:43;98239.44;;;19.89;77.98
5455;BME280;2750;49.050;9.250;2022-09-16T10:15:47;98239.22;;;18.77;82.81
5455;BME280;2750;49.050;9.250;2022-09-16T10:20:57;98246.69;;;18.02;84.66
5455;BME280;2750;49.050;9.250;2022-09-16T10:26:17;98238.91;;;17.49;84.97
5455;BME280;2750;49.050;9.250;2022-09-16T10:31:20;98241.06;;;17.44;87.70
5455;BME280;2750;49.050;9.250;2022-09-16T10:36:22;98239.34;;;17.02;85.32
5455;BME280;2750;49.050;9.250;2022-09-16T10:41:28;98251.59;;;17.65;86.23
5455;BME280;2750;49.050;9.250;2022-09-16T10:46:32;98244.38;;;17.78;82.20
5455;BME280;2750;49.050;9.250;2022-09-16T10:51:34;98236.50;;;17.05;85.09
5455;BME280;2750;49.050;9.250;2022-09-16T10:56:48;98248.03;;;17.34;85.57
5455;BME280;2750;49.050;9.250;2022-09-16T11:01:57;98237.50;;;17.13;82.65
5455;BME280;2750;49.050;9.250;2022-09-16T11:07:08;98247.88;;;17.67;83.04
5455;BME280;2750;49.050;9.250;2022-09-16T11:12:38;98239.34;;;17.02;82.92
5455;BME280;2750;49.050;9.250;2022-09-16T11:17:52;98248.69;;;17.27;83.31
5455;BME280;2750;49.050;9.250;2022-09-16T11:23:03;98249.63;;;17.05;82.42
5455;BME280;2750;49.050;9.250;2022-09-16T11:28:30;98246.94;;;17.37;80.13
5455;BME280;2750;49.050;9.250;2022-09-16T11:33:42;98253.13;;;17.67;79.51
5455;BME280;2750;49.050;9.250;2022-09-16T11:38:58;98243.19;;;17.92;78.79
5455;BME280;2750;49.050;9.250;2022-09-16T11:44:22;98250.88;;;18.14;77.48
5455;BME280;2750;49.050;9.250;2022-09-16T11:49:38;98250.88;;;18.04;78.97
5455;BME280;2750;49.050;9.250;2022-09-16T11:54:59;98248.75;;;18.78;75.21
5455;BME280;2750;49.050;9.250;2022-09-16T12:00:10;98241.47;;;19.49;77.08
5455;BME280;2750;49.050;9.250;2022-09-16T12:05:16;98227.31;;;19.69;73.26
5455;BME280;2750;49.050;9.250;2022-09-16T12:10:22;98229.28;;;19.58;71.41
5455;BME280;2750;49.050;9.250;2022-09-16T12:15:29;98227.31;;;19.69;69.96
5455;BME280;2750;49.050;9.250;2022-09-16T12:20:37;98224.81;;;18.72;71.64
5455;BME280;2750;49.050;9.250;2022-09-16T12:25:44;98233.69;;;18.00;73.20
5455;BME280;2750;49.050;9.250;2022-09-16T12:31:05;98226.91;;;18.28;72.56
5455;BME280;2750;49.050;9.250;2022-09-16T12:36:11;98222.09;;;18.03;74.55
5455;BME280;2750;49.050;9.250;2022-09-16T12:41:28;98205.16;;;19.62;71.17
5455;BME280;2750;49.050;9.250;2022-09-16T12:52:18;98201.88;;;18.93;73.50
5455;BME280;2750;49.050;9.250;2022-09-16T12:57:35;98194.53;;;19.06;73.80
5455;BME280;2750;49.050;9.250;2022-09-16T13:02:43;98193.69;;;19.53;72.73
5455;BME280;2750;49.050;9.250;2022-09-16T13:07:51;98193.81;;;19.62;71.34
5455;BME280;2750;49.050;9.250;2022-09-16T13:12:55;98192.06;;;19.80;70.53
5455;BME280;2750;49.050;9.250;2022-09-16T13:18:07;98174.25;;;19.64;70.23
5455;BME280;2750;49.050;9.250;2022-09-16T13:23:14;98172.69;;;19.81;67.68
5455;BME280;2750;49.050;9.250;2022-09-16T13:28:23;98172.47;;;19.36;69.12
5455;BME280;2750;49.050;9.250;2022-09-16T13:33:28;98176.34;;;19.41;69.75
5455;BME280;2750;49.050;9.250;2022-09-16T13:38:38;98168.16;;;19.64;66.18
5455;BME280;2750;49.050;9.250;2022-09-16T13:43:51;98171.38;;;19.58;66.73
5455;BME280;2750;49.050;9.250;2022-09-16T13:48:56;98158.63;;;19.90;67.96
5455;BME280;2750;49.050;9.250;2022-09-16T13:54:00;98159.78;;;19.78;67.89
5455;BME280;2750;49.050;9.250;2022-09-16T13:59:11;98149.25;;;20.60;67.25
5455;BME280;2750;49.050;9.250;2022-09-16T14:04:24;98151.16;;;20.13;67.69
5455;BME280;2750;49.050;9.250;2022-09-16T14:09:37;98157.88;;;20.07;67.40
5455;BME280;2750;49.050;9.250;2022-09-16T14:14:45;98149.34;;;19.59;65.87
5455;BME280;2750;49.050;9.250;2022-09-16T14:19:48;98135.88;;;19.62;64.83
5455;BME280;2750;49.050;9.250;2022-09-16T14:24:53;98143.41;;;19.84;64.61
5455;BME280;2750;49.050;9.250;2022-09-16T14:29:56;98144.41;;;19.17;67.95
5455;BME280;2750;49.050;9.250;2022-09-16T14:35:02;98132.88;;;20.11;65.93
5455;BME280;2750;49.050;9.250;2022-09-16T14:40:12;98134.69;;;20.91;63.00
5455;BME280;2750;49.050;9.250;2022-09-16T14:45:15;98134.16;;;21.05;62.44
5455;BME280;2750;49.050;9.250;2022-09-16T14:50:19;98143.13;;;20.14;64.28
5455;BME280;2750;49.050;9.250;2022-09-16T14:55:24;98135.94;;;19.42;66.53
5455;BME280;2750;49.050;9.250;2022-09-16T15:00:29;98145.09;;;19.19;67.68
5455;BME280;2750;49.050;9.250;2022-09-16T15:05:34;98146.72;;;19.49;68.05
5455;BME280;2750;49.050;9.250;2022-09-16T15:10:37;98147.72;;;19.09;67.30
5455;BME280;2750;49.050;9.250;2022-09-16T15:15:45;98142.34;;;19.01;68.08
5455;BME280;2750;49.050;9.250;2022-09-16T15:20:51;98147.06;;;18.88;68.56
5455;BME280;2750;49.050;9.250;2022-09-16T15:25:56;98136.91;;;19.22;68.49
5455;BME280;2750;49.050;9.250;2022-09-16T15:30:58;98147.34;;;18.95;69.27
5455;BME280;2750;49.050;9.250;2022-09-16T15:36:00;98145.69;;;18.84;69.96
5455;BME280;2750;49.050;9.250;2022-09-16T15:41:04;98140.25;;;18.67;70.73
5455;BME280;2750;49.050;9.250;2022-09-16T15:46:12;98141.00;;;19.63;69.17
5455;BME280;2750;49.050;9.250;2022-09-16T15:51:25;98147.56;;;20.14;67.24
5455;BME280;2750;49.050;9.250;2022-09-16T15:56:32;98145.25;;;20.01;67.54
5455;BME280;2750;49.050;9.250;2022-09-16T16:01:41;98155.19;;;19.33;68.70
5455;BME280;2750;49.050;9.250;2022-09-16T16:06:49;98171.44;;;17.82;73.98
5455;BME280;2750;49.050;9.250;2022-09-16T16:11:52;98173.56;;;17.46;74.48
5455;BME280;2750;49.050;9.250;2022-09-16T16:16:55;98174.22;;;17.39;74.98
5455;BME280;2750;49.050;9.250;2022-09-16T16:21:57;98188.72;;;17.22;75.00
5455;BME280;2750;49.050;9.250;2022-09-16T16:27:00;98183.75;;;17.19;75.33
5455;BME280;2750;49.050;9.250;2022-09-16T16:32:05;98193.50;;;17.28;76.11
5455;BME280;2750;49.050;9.250;2022-09-16T16:37:08;98198.94;;;17.57;75.11
5455;BME280;2750;49.050;9.250;2022-09-16T16:42:11;98199.78;;;17.57;74.78
5455;BME280;2750;49.050;9.250;2022-09-16T16:47:13;98204.03;;;17.17;75.29
5455;BME280;2750;49.050;9.250;2022-09-16T16:52:14;98209.28;;;17.17;74.68
5455;BME280;2750;49.050;9.250;2022-09-16T16:57:17;98219.31;;;17.12;75.74
5455;BME280;2750;49.050;9.250;2022-09-16T17:02:19;98229.13;;;16.99;75.46
5455;BME280;2750;49.050;9.250;2022-09-16T17:07:20;98249.25;;;16.33;75.94
5455;BME280;2750;49.050;9.250;2022-09-16T17:12:23;98260.59;;;14.96;86.11
5455;BME280;2750;49.050;9.250;2022-09-16T17:17:25;98275.84;;;13.66;94.80
5455;BME280;2750;49.050;9.250;2022-09-16T17:22:26;98269.34;;;13.46;98.19
5455;BME280;2750;49.050;9.250;2022-09-16T17:27:29;98272.09;;;13.57;96.48
5455;BME280;2750;49.050;9.250;2022-09-16T17:32:31;98269.41;;;13.71;97.55
5455;BME280;2750;49.050;9.250;2022-09-16T17:37:32;98260.81;;;14.07;96.23
5455;BME280;2750;49.050;9.250;2022-09-16T17:42:36;98260.38;;;14.39;93.32
5455;BME280;2750;49.050;9.250;2022-09-16T17:47:37;98259.13;;;14.44;94.99
5455;BME280;2750;49.050;9.250;2022-09-16T17:52:39;98267.53;;;13.99;96.38
5455;BME280;2750;49.050;9.250;2022-09-16T17:57:42;98264.03;;;14.72;94.94
5455;BME280;2750;49.050;9.250;2022-09-16T18:02:44;98274.56;;;15.07;94.76
5455;BME280;2750;49.050;9.250;2022-09-16T18:07:45;98276.13;;;15.10;93.92
5455;BME280;2750;49.050;9.250;2022-09-16T18:12:48;98286.06;;;14.81;95.08
5455;BME280;2750;49.050;9.250;2022-09-16T18:17:50;98283.78;;;14.40;96.43
5455;BME280;2750;49.050;9.250;2022-09-16T18:22:51;98289.13;;;14.13;96.26
5455;BME280;2750;49.050;9.250;2022-09-16T18:27:55;98304.66;;;13.89;97.00
5455;BME280;2750;49.050;9.250;2022-09-16T18:32:57;98312.28;;;14.05;95.47
5455;BME280;2750;49.050;9.250;2022-09-16T18:37:58;98316.66;;;14.17;94.76
5455;BME280;2750;49.050;9.250;2022-09-16T18:43:01;98322.94;;;14.40;93.61
5455;BME280;2750;49.050;9.250;2022-09-16T18:48:03;98329.28;;;13.85;96.01
5455;BME280;2750;49.050;9.250;2022-09-16T18:53:04;98321.34;;;13.74;96.25
5455;BME280;2750;49.050;9.250;2022-09-16T18:58:07;98317.06;;;13.86;97.29
5455;BME280;2750;49.050;9.250;2022-09-16T19:03:08;98321.34;;;13.74;96.61
5455;BME280;2750;49.050;9.250;2022-09-16T19:08:10;98320.69;;;13.58;97.55
5455;BME280;2750;49.050;9.250;2022-09-16T19:13:13;98310.69;;;13.52;98.56
5455;BME280;2750;49.050;9.250;2022-09-16T19:18:15;98309.34;;;13.84;96.83
5455;BME280;2750;49.050;9.250;2022-09-16T19:23:16;98309.25;;;13.86;97.31
5455;BME280;2750;49.050;9.250;2022-09-16T19:28:19;98315.59;;;13.69;97.97
5455;BME280;2750;49.050;9.250;2022-09-16T19:33:21;98324.78;;;14.00;95.91
5455;BME280;2750;49.050;9.250;2022-09-16T19:38:22;98331.47;;;14.17;95.19
5455;BME280;2750;49.050;9.250;2022-09-16T19:43:25;98338.25;;;14.32;95.21
5455;BME280;2750;49.050;9.250;2022-09-16T19:48:27;98336.50;;;13.95;96.28
5455;BME280;2750;49.050;9.250;2022-09-16T19:53:30;98346.81;;;14.34;96.52
5455;BME280;2750;49.050;9.250;2022-09-16T19:58:34;98340.69;;;14.10;96.62
5455;BME280;2750;49.050;9.250;2022-09-16T20:03:38;98334.72;;;14.08;98.04
5455;BME280;2750;49.050;9.250;2022-09-16T20:08:42;98346.81;;;14.34;96.72
5455;BME280;2750;49.050;9.250;2022-09-16T20:13:47;98340.78;;;14.21;96.72
5455;BME280;2750;49.050;9.250;2022-09-16T20:18:50;98344.84;;;14.12;97.69
5455;BME280;2750;49.050;9.250;2022-09-16T20:23:52;98338.88;;;14.23;96.74
5455;BME280;2750;49.050;9.250;2022-09-16T20:28:57;98342.66;;;14.06;96.45
5455;BME280;2750;49.050;9.250;2022-09-16T20:33:59;98347.66;;;14.09;96.17
5455;BME280;2750;49.050;9.250;2022-09-16T20:39:02;98348.81;;;14.18;95.04
5455;BME280;2750;49.050;9.250;2022-09-16T20:44:05;98354.94;;;13.92;95.99
5455;BME280;2750;49.050;9.250;2022-09-16T20:49:10;98359.34;;;14.04;95.43
5455;BME280;2750;49.050;9.250;2022-09-16T20:54:14;98373.88;;;13.68;96.33
5455;BME280;2750;49.050;9.250;2022-09-16T20:59:17;98377.66;;;13.64;95.49
5455;BME280;2750;49.050;9.250;2022-09-16T21:04:20;98376.41;;;13.70;95.15
5455;BME280;2750;49.050;9.250;2022-09-16T21:09:21;98375.97;;;13.63;95.91
5455;BME280;2750;49.050;9.250;2022-09-16T21:14:24;98375.28;;;13.47;95.27
5455;BME280;2750;49.050;9.250;2022-09-16T21:19:26;98383.75;;;13.24;96.63
5455;BME280;2750;49.050;9.250;2022-09-16T21:24:27;98391.78;;;13.07;97.00
5455;BME280;2750;49.050;9.250;2022-09-16T21:29:30;98384.63;;;12.96;97.64
5455;BME280;2750;49.050;9.250;2022-09-16T21:34:32;98380.47;;;12.79;98.09
5455;BME280;2750;49.050;9.250;2022-09-16T21:39:33;98395.28;;;12.65;99.05
5455;BME280;2750;49.050;9.250;2022-09-16T21:44:36;98393.03;;;12.87;99.22
5455;BME280;2750;49.050;9.250;2022-09-16T21:49:37;98392.84;;;12.76;99.02
5455;BME280;2750;49.050;9.250;2022-09-16T21:54:39;98395.50;;;13.03;97.49
5455;BME280;2750;49.050;9.250;2022-09-16T21:59:42;98406.72;;;13.31;96.85
5455;BME280;2750;49.050;9.250;2022-09-16T22:04:44;98404.44;;;12.99;96.51
5455;BME280;2750;49.050;9.250;2022-09-16T22:09:48;98406.50;;;12.93;97.39
5455;BME280;2750;49.050;9.250;2022-09-16T22:14:50;98412.06;;;13.16;96.76
5455;BME280;2750;49.050;9.250;2022-09-16T22:19:52;98410.94;;;13.06;96.59
5455;BME280;2750;49.050;9.250;2022-09-16T22:24:53;98413.75;;;13.03;97.27
5455;BME280;2750;49.050;9.250;2022-09-16T22:29:56;98417.84;;;13.07;97.17
5455;BME280;2750;49.050;9.250;2022-09-16T22:34:58;98409.47;;;13.02;98.40
5455;BME280;2750;49.050;9.250;2022-09-16T22:39:59;98407.41;;;13.21;97.04
5455;BME280;2750;49.050;9.250;2022-09-16T22:45:02;98406.28;;;13.25;95.94
5455;BME280;2750;49.050;9.250;2022-09-16T22:50:04;98406.94;;;13.00;97.33
5455;BME280;2750;49.050;9.250;2022-09-16T22:55:07;98398.31;;;13.14;96.86
5455;BME280;2750;49.050;9.250;2022-09-16T23:00:11;98388.34;;;12.92;97.67
5455;BME280;2750;49.050;9.250;2022-09-16T23:05:13;98393.59;;;12.64;98.31
5455;BME280;2750;49.050;9.250;2022-09-16T23:10:15;98405.41;;;12.83;97.91
5455;BME280;2750;49.050;9.250;2022-09-16T23:15:17;98413.09;;;12.85;97.07
5455;BME280;2750;49.050;9.250;2022-09-16T23:20:19;98405.78;;;12.63;97.43
5455;BME280;2750;49.050;9.250;2022-09-16T23:25:21;98401.31;;;12.65;96.96
5455;BME280;2750;49.050;9.250;2022-09-16T23:30:24;98403.06;;;12.51;98.58
5455;BME280;2750;49.050;9.250;2022-09-16T23:35:26;98403.84;;;12.53;97.99
5455;BME280;2750;49.050;9.250;2022-09-16T23:40:27;98399.09;;;12.45;98.33
5455;BME280;2750;49.050;9.250;2022-09-16T23:45:33;98411.72;;;12.37;99.32
5455;BME280;2750;49.050;9.250;2022-09-16T23:50:35;98420.53;;;12.77;97.39
5455;BME280;2750;49.050;9.250;2022-09-16T23:55:39;98418.41;;;12.69;96.67
